sensor_id;sensor_type;location;lat;lon;timestamp;pressure;altitude;pressure_sealevel;temperature;humidity
65614;BME280;52283;49.292;10.572;2022-07-25T00:01:22;96440.09;;;19.67;70.64
65614;BME280;52283;49.292;10.572;2022-07-25T00:03:49;96440.66;;;19.65;70.85
65614;BME280;52283;49.292;10.572;2022-07-25T00:06:16;96435.38;;;19.62;71.54
65614;BME280;52283;49.292;10.572;2022-07-25T00:08:44;96438.78;;;19.60;71.94
65614;BME280;52283;49.292;10.572;2022-07-25T00:11:10;96439.13;;;19.57;71.90
65614;BME280;52283;49.292;10.572;2022-07-25T00:13:37;96433.03;;;19.53;71.95
65614;BME280;52283;49.292;10.572;2022-07-25T00:16:04;96428.91;;;19.54;72.44
65614;BME280;52283;49.292;10.572;2022-07-25T00:18:30;96428.34;;;19.55;73.30
65614;BME280;52283;49.292;10.572;2022-07-25T00:20:57;96432.28;;;19.52;73.31
65614;BME280;52283;49.292;10.572;2022-07-25T00:23:24;96429.28;;;19.50;74.04
65614;BME280;52283;49.292;10.572;2022-07-25T00:25:52;96429.28;;;19.50;73.71
65614;BME280;52283;49.292;10.572;2022-07-25T00:28:18;96423.97;;;19.46;73.93
65614;BME280;52283;49.292;10.572;2022-07-25T00:30:45;96422.66;;;19.47;74.28
65614;BME280;52283;49.292;10.572;2022-07-25T00:33:12;96413.97;;;19.45;73.97
65614;BME280;52283;49.292;10.572;2022-07-25T00:35:38;96419.84;;;19.55;70.92
65614;BME280;52283;49.292;10.572;2022-07-25T00:38:05;96416.66;;;19.82;70.30
65614;BME280;52283;49.292;10.572;2022-07-25T00:40:31;96419.47;;;19.97;68.20
65614;BME280;52283;49.292;10.572;2022-07-25T00:42:59;96417.41;;;19.97;67.41
65614;BME280;52283;49.292;10.572;2022-07-25T00:45:26;96415.13;;;19.96;69.31
65614;BME280;52283;49.292;10.572;2022-07-25T00:47:52;96422.16;;;19.79;69.88
65614;BME280;52283;49.292;10.572;2022-07-25T00:50:19;96415.72;;;19.79;69.88
65614;BME280;52283;49.292;10.572;2022-07-25T00:52:46;96417.59;;;19.76;70.36
65614;BME280;52283;49.292;10.572;2022-07-25T00:55:13;96409.47;;;19.73;68.46
65614;BME280;52283;49.292;10.572;2022-07-25T00:57:40;96410.22;;;19.73;69.44
65614;BME280;52283;49.292;10.572;2022-07-25T01:00:12;96405.13;;;19.87;68.42
65614;BME280;52283;49.292;10.572;2022-07-25T01:02:39;96402.47;;;19.89;68.39
65614;BME280;52283;49.292;10.572;2022-07-25T01:05:07;96400.78;;;20.01;66.62
65614;BME280;52283;49.292;10.572;2022-07-25T01:07:34;96396.63;;;19.87;66.79
65614;BME280;52283;49.292;10.572;2022-07-25T01:10:02;96396.25;;;19.83;67.20
65614;BME280;52283;49.292;10.572;2022-07-25T01:12:29;96392.28;;;19.86;67.39
65614;BME280;52283;49.292;10.572;2022-07-25T01:14:56;96391.34;;;19.84;67.68
65614;BME280;52283;49.292;10.572;2022-07-25T01:17:24;96383.97;;;19.73;68.69
65614;BME280;52283;49.292;10.572;2022-07-25T01:19:50;96388.31;;;19.74;68.23
65614;BME280;52283;49.292;10.572;2022-07-25T01:22:19;96391.34;;;19.61;68.35
65614;BME280;52283;49.292;10.572;2022-07-25T01:24:45;96392.09;;;19.69;69.20
65614;BME280;52283;49.292;10.572;2022-07-25T01:27:12;96387.00;;;19.60;69.87
65614;BME280;52283;49.292;10.572;2022-07-25T01:29:38;96388.09;;;19.57;70.14
65614;BME280;52283;49.292;10.572;2022-07-25T01:32:05;96389.66;;;19.58;70.10
65614;BME280;52283;49.292;10.572;2022-07-25T01:34:31;96377.34;;;19.63;68.88
65614;BME280;52283;49.292;10.572;2022-07-25T01:36:58;96372.25;;;19.69;68.19
65614;BME280;52283;49.292;10.572;2022-07-25T01:39:25;96378.09;;;19.71;68.74
65614;BME280;52283;49.292;10.572;2022-07-25T01:41:52;96376.41;;;19.75;69.40
65614;BME280;52283;49.292;10.572;2022-07-25T01:44:18;96383.41;;;19.67;69.96
65614;BME280;52283;49.292;10.572;2022-07-25T01:46:45;96380.19;;;19.63;70.15
65614;BME280;52283;49.292;10.572;2022-07-25T01:49:12;96379.25;;;19.60;70.26
65614;BME280;52283;49.292;10.572;2022-07-25T01:51:38;96381.69;;;19.56;70.56
65614;BME280;52283;49.292;10.572;2022-07-25T01:54:05;96374.09;;;19.51;71.22
65614;BME280;52283;49.292;10.572;2022-07-25T01:56:33;96377.31;;;19.40;72.01
65614;BME280;52283;49.292;10.572;2022-07-25T01:58:59;96388.06;;;19.34;73.32
65614;BME280;52283;49.292;10.572;2022-07-25T02:01:25;96381.22;;;19.06;74.86
65614;BME280;52283;49.292;10.572;2022-07-25T02:03:52;96386.66;;;18.89;76.39
65614;BME280;52283;49.292;10.572;2022-07-25T02:06:18;96380.97;;;18.89;76.20
65614;BME280;52283;49.292;10.572;2022-07-25T02:08:45;96377.00;;;18.84;76.45
65614;BME280;52283;49.292;10.572;2022-07-25T02:11:12;96380.97;;;18.81;76.80
65614;BME280;52283;49.292;10.572;2022-07-25T02:13:40;96380.34;;;18.68;77.64
65614;BME280;52283;49.292;10.572;2022-07-25T02:16:06;96378.84;;;18.67;77.57
65614;BME280;52283;49.292;10.572;2022-07-25T02:18:33;96385.06;;;18.65;77.66
65614;BME280;52283;49.292;10.572;2022-07-25T02:20:59;96384.63;;;18.61;77.64
65614;BME280;52283;49.292;10.572;2022-07-25T02:23:26;96385.75;;;18.58;78.34
65614;BME280;52283;49.292;10.572;2022-07-25T02:25:52;96382.69;;;18.48;78.81
65614;BME280;52283;49.292;10.572;2022-07-25T02:28:19;96386.44;;;18.43;79.07
65614;BME280;52283;49.292;10.572;2022-07-25T02:30:47;96383.97;;;18.40;79.51
65614;BME280;52283;49.292;10.572;2022-07-25T02:33:13;96377.38;;;18.37;79.74
65614;BME280;52283;49.292;10.572;2022-07-25T02:35:40;96380.00;;;18.35;79.82
65614;BME280;52283;49.292;10.572;2022-07-25T02:38:06;96386.63;;;18.45;79.30
65614;BME280;52283;49.292;10.572;2022-07-25T02:40:33;96380.84;;;18.58;77.97
65614;BME280;52283;49.292;10.572;2022-07-25T02:42:59;96372.66;;;18.83;76.41
65614;BME280;52283;49.292;10.572;2022-07-25T02:45:26;96379.66;;;18.82;76.41
65614;BME280;52283;49.292;10.572;2022-07-25T02:47:53;96371.13;;;18.75;77.04
65614;BME280;52283;49.292;10.572;2022-07-25T02:50:20;96366.38;;;18.70;77.61
65614;BME280;52283;49.292;10.572;2022-07-25T02:52:46;96381.06;;;18.61;77.95
65614;BME280;52283;49.292;10.572;2022-07-25T02:55:13;96365.91;;;18.50;78.44
65614;BME280;52283;49.292;10.572;2022-07-25T02:57:39;96365.94;;;18.58;77.09
65614;BME280;52283;49.292;10.572;2022-07-25T03:00:07;96360.03;;;18.92;75.99
65614;BME280;52283;49.292;10.572;2022-07-25T03:02:33;96360.03;;;18.92;75.94
65614;BME280;52283;49.292;10.572;2022-07-25T03:05:01;96358.13;;;18.87;76.64
65614;BME280;52283;49.292;10.572;2022-07-25T03:07:30;96355.16;;;19.00;74.90
65614;BME280;52283;49.292;10.572;2022-07-25T03:09:57;96342.47;;;18.94;75.59
65614;BME280;52283;49.292;10.572;2022-07-25T03:12:23;96351.19;;;18.96;74.56
65614;BME280;52283;49.292;10.572;2022-07-25T03:14:50;96354.22;;;19.05;74.05
65614;BME280;52283;49.292;10.572;2022-07-25T03:17:16;96351.00;;;19.01;74.17
65614;BME280;52283;49.292;10.572;2022-07-25T03:19:43;96340.41;;;18.94;74.30
65614;BME280;52283;49.292;10.572;2022-07-25T03:22:11;96336.28;;;18.95;74.52
65614;BME280;52283;49.292;10.572;2022-07-25T03:24:37;96333.22;;;18.93;74.69
65614;BME280;52283;49.292;10.572;2022-07-25T03:27:04;96333.19;;;18.70;76.11
65614;BME280;52283;49.292;10.572;2022-07-25T03:29:30;96331.84;;;18.64;76.25
65614;BME280;52283;49.292;10.572;2022-07-25T03:31:57;96325.00;;;18.59;76.08
65614;BME280;52283;49.292;10.572;2022-07-25T03:34:24;96322.56;;;18.55;76.38
65614;BME280;52283;49.292;10.572;2022-07-25T03:36:51;96316.47;;;18.51;76.73
65614;BME280;52283;49.292;10.572;2022-07-25T03:39:19;96322.41;;;18.69;76.07
65614;BME280;52283;49.292;10.572;2022-07-25T03:41:46;96308.69;;;18.88;74.88
65614;BME280;52283;49.292;10.572;2022-07-25T03:44:13;96318.69;;;18.89;74.88
65614;BME280;52283;49.292;10.572;2022-07-25T03:46:39;96317.97;;;18.96;74.77
65614;BME280;52283;49.292;10.572;2022-07-25T03:49:06;96309.84;;;19.00;74.83
65614;BME280;52283;49.292;10.572;2022-07-25T03:51:32;96312.31;;;19.04;74.18
65614;BME280;52283;49.292;10.572;2022-07-25T03:53:59;96308.34;;;19.07;74.53
65614;BME280;52283;49.292;10.572;2022-07-25T03:56:31;96307.81;;;19.16;74.39
65614;BME280;52283;49.292;10.572;2022-07-25T03:58:58;96304.59;;;19.19;73.80
65614;BME280;52283;49.292;10.572;2022-07-25T04:01:25;96305.91;;;19.26;73.58
65614;BME280;52283;49.292;10.572;2022-07-25T04:03:51;96296.47;;;19.24;73.46
65614;BME280;52283;49.292;10.572;2022-07-25T04:06:18;96291.38;;;19.22;73.71
65614;BME280;52283;49.292;10.572;2022-07-25T04:08:44;96296.47;;;19.16;73.95
65614;BME280;52283;49.292;10.572;2022-07-25T04:11:11;96302.50;;;19.12;74.07
65614;BME280;52283;49.292;10.572;2022-07-25T04:13:39;96296.28;;;19.22;73.82
65614;BME280;52283;49.292;10.572;2022-07-25T04:16:05;96298.34;;;19.29;73.46
65614;BME280;52283;49.292;10.572;2022-07-25T04:18:32;96296.47;;;19.31;73.32
65614;BME280;52283;49.292;10.572;2022-07-25T04:20:59;96296.28;;;19.29;73.94
65614;BME280;52283;49.292;10.572;2022-07-25T04:23:26;96294.00;;;19.35;73.74
65614;BME280;52283;49.292;10.572;2022-07-25T04:25:53;96302.31;;;19.33;74.00
65614;BME280;52283;49.292;10.572;2022-07-25T04:28:19;96292.50;;;19.42;73.22
65614;BME280;52283;49.292;10.572;2022-07-25T04:30:47;96300.44;;;19.43;73.46
65614;BME280;52283;49.292;10.572;2022-07-25T04:33:14;96298.53;;;19.46;73.17
65614;BME280;52283;49.292;10.572;2022-07-25T04:35:41;96293.25;;;19.50;73.86
65614;BME280;52283;49.292;10.572;2022-07-25T04:38:08;96295.13;;;19.47;73.60
65614;BME280;52283;49.292;10.572;2022-07-25T04:40:36;96290.97;;;19.48;73.54
65614;BME280;52283;49.292;10.572;2022-07-25T04:43:03;96285.69;;;19.53;73.34
65614;BME280;52283;49.292;10.572;2022-07-25T04:45:29;96279.06;;;19.35;74.50
65614;BME280;52283;49.292;10.572;2022-07-25T04:47:57;96272.28;;;19.38;74.05
65614;BME280;52283;49.292;10.572;2022-07-25T04:50:24;96276.63;;;19.39;74.46
65614;BME280;52283;49.292;10.572;2022-07-25T04:52:50;96267.97;;;19.60;73.72
65614;BME280;52283;49.292;10.572;2022-07-25T04:55:17;96273.44;;;19.58;73.79
65614;BME280;52283;49.292;10.572;2022-07-25T04:57:43;96263.22;;;19.62;73.49
65614;BME280;52283;49.292;10.572;2022-07-25T05:00:12;96255.81;;;19.74;73.45
65614;BME280;52283;49.292;10.572;2022-07-25T05:02:39;96265.41;;;19.94;72.19
65614;BME280;52283;49.292;10.572;2022-07-25T05:05:08;96261.41;;;19.97;72.18
65614;BME280;52283;49.292;10.572;2022-07-25T05:07:35;96260.25;;;20.08;71.99
65614;BME280;52283;49.292;10.572;2022-07-25T05:10:02;96265.50;;;20.19;71.36
65614;BME280;52283;49.292;10.572;2022-07-25T05:12:29;96252.41;;;20.31;71.05
65614;BME280;52283;49.292;10.572;2022-07-25T05:14:55;96262.63;;;20.42;71.01
65614;BME280;52283;49.292;10.572;2022-07-25T05:17:22;96255.03;;;20.45;70.74
65614;BME280;52283;49.292;10.572;2022-07-25T05:19:48;96256.13;;;20.49;70.64
65614;BME280;52283;49.292;10.572;2022-07-25T05:22:16;96251.50;;;20.61;70.40
65614;BME280;52283;49.292;10.572;2022-07-25T05:24:43;96255.06;;;20.69;69.83
65614;BME280;52283;49.292;10.572;2022-07-25T05:27:09;96259.91;;;20.84;68.79
65614;BME280;52283;49.292;10.572;2022-07-25T05:29:36;96259.41;;;21.03;68.08
65614;BME280;52283;49.292;10.572;2022-07-25T05:32:03;96265.25;;;21.05;68.26
65614;BME280;52283;49.292;10.572;2022-07-25T05:34:29;96259.34;;;21.11;68.17
65614;BME280;52283;49.292;10.572;2022-07-25T05:36:56;96256.84;;;21.15;67.99
65614;BME280;52283;49.292;10.572;2022-07-25T05:39:23;96253.41;;;21.24;67.85
65614;BME280;52283;49.292;10.572;2022-07-25T05:41:50;96250.66;;;21.34;67.36
65614;BME280;52283;49.292;10.572;2022-07-25T05:44:16;96250.94;;;21.45;66.75
65614;BME280;52283;49.292;10.572;2022-07-25T05:46:43;96248.34;;;21.57;65.90
65614;BME280;52283;49.292;10.572;2022-07-25T05:49:10;96256.00;;;21.72;65.54
65614;BME280;52283;49.292;10.572;2022-07-25T05:51:36;96252.63;;;21.83;64.47
65614;BME280;52283;49.292;10.572;2022-07-25T05:54:03;96254.06;;;21.91;63.95
65614;BME280;52283;49.292;10.572;2022-07-25T05:56:30;96259.84;;;22.01;63.45
65614;BME280;52283;49.292;10.572;2022-07-25T05:58:57;96261.78;;;22.16;62.90
65614;BME280;52283;49.292;10.572;2022-07-25T06:01:23;96266.03;;;22.25;63.00
65614;BME280;52283;49.292;10.572;2022-07-25T06:03:50;96274.25;;;22.38;62.18
65614;BME280;52283;49.292;10.572;2022-07-25T06:06:16;96260.06;;;22.47;62.63
65614;BME280;52283;49.292;10.572;2022-07-25T06:08:43;96266.75;;;22.60;62.24
65614;BME280;52283;49.292;10.572;2022-07-25T06:11:09;96260.19;;;22.67;61.62
65614;BME280;52283;49.292;10.572;2022-07-25T06:13:37;96254.13;;;22.80;61.85
65614;BME280;52283;49.292;10.572;2022-07-25T06:16:04;96248.16;;;22.86;60.65
65614;BME280;52283;49.292;10.572;2022-07-25T06:18:30;96248.84;;;23.03;59.55
65614;BME280;52283;49.292;10.572;2022-07-25T06:20:57;96247.97;;;23.10;60.09
65614;BME280;52283;49.292;10.572;2022-07-25T06:23:23;96249.81;;;23.16;59.69
65614;BME280;52283;49.292;10.572;2022-07-25T06:25:50;96244.13;;;23.25;58.44
65614;BME280;52283;49.292;10.572;2022-07-25T06:28:16;96235.88;;;23.29;57.82
65614;BME280;52283;49.292;10.572;2022-07-25T06:30:44;96235.34;;;23.50;57.59
65614;BME280;52283;49.292;10.572;2022-07-25T06:33:11;96231.97;;;23.71;57.58
65614;BME280;52283;49.292;10.572;2022-07-25T06:35:38;96231.53;;;23.84;56.83
65614;BME280;52283;49.292;10.572;2022-07-25T06:38:04;96228.41;;;23.99;56.20
65614;BME280;52283;49.292;10.572;2022-07-25T06:40:31;96233.50;;;24.11;55.52
65614;BME280;52283;49.292;10.572;2022-07-25T06:42:57;96227.50;;;24.16;55.32
65614;BME280;52283;49.292;10.572;2022-07-25T06:45:24;96224.06;;;24.37;56.16
65614;BME280;52283;49.292;10.572;2022-07-25T06:47:52;96218.63;;;24.41;55.39
65614;BME280;52283;49.292;10.572;2022-07-25T06:50:18;96223.22;;;24.66;54.16
65614;BME280;52283;49.292;10.572;2022-07-25T06:52:45;96223.81;;;24.74;53.75
65614;BME280;52283;49.292;10.572;2022-07-25T06:55:13;96216.59;;;24.73;53.92
65614;BME280;52283;49.292;10.572;2022-07-25T06:57:41;96212.97;;;24.82;54.02
65614;BME280;52283;49.292;10.572;2022-07-25T07:00:10;96213.19;;;25.05;53.97
65614;BME280;52283;49.292;10.572;2022-07-25T07:02:46;96208.94;;;25.16;53.09
65614;BME280;52283;49.292;10.572;2022-07-25T07:05:15;96215.44;;;25.38;52.59
65614;BME280;52283;49.292;10.572;2022-07-25T07:07:41;96217.25;;;25.64;51.55
65614;BME280;52283;49.292;10.572;2022-07-25T07:10:08;96208.28;;;25.79;50.97
65614;BME280;52283;49.292;10.572;2022-07-25T07:12:35;96211.53;;;26.07;50.07
65614;BME280;52283;49.292;10.572;2022-07-25T07:15:01;96205.31;;;26.10;49.61
65614;BME280;52283;49.292;10.572;2022-07-25T07:17:28;96208.06;;;26.08;49.46
65614;BME280;52283;49.292;10.572;2022-07-25T07:19:55;96207.00;;;26.25;49.95
65614;BME280;52283;49.292;10.572;2022-07-25T07:22:23;96207.22;;;26.18;49.69
65614;BME280;52283;49.292;10.572;2022-07-25T07:24:49;96200.03;;;26.50;48.73
65614;BME280;52283;49.292;10.572;2022-07-25T07:27:15;96195.16;;;26.52;48.29
65614;BME280;52283;49.292;10.572;2022-07-25T07:29:42;96199.56;;;26.77;47.64
65614;BME280;52283;49.292;10.572;2022-07-25T07:32:09;96194.50;;;26.87;48.52
65614;BME280;52283;49.292;10.572;2022-07-25T07:34:35;96191.72;;;26.77;48.08
65614;BME280;52283;49.292;10.572;2022-07-25T07:37:02;96181.31;;;27.28;46.90
65614;BME280;52283;49.292;10.572;2022-07-25T07:39:30;96180.44;;;27.14;46.23
65614;BME280;52283;49.292;10.572;2022-07-25T07:41:56;96171.69;;;27.24;46.20
65614;BME280;52283;49.292;10.572;2022-07-25T07:44:23;96180.84;;;27.81;44.85
65614;BME280;52283;49.292;10.572;2022-07-25T07:46:49;96167.69;;;28.01;44.56
65614;BME280;52283;49.292;10.572;2022-07-25T07:49:16;96167.84;;;27.31;45.39
65614;BME280;52283;49.292;10.572;2022-07-25T07:51:42;96165.97;;;27.12;45.98
65614;BME280;52283;49.292;10.572;2022-07-25T07:54:09;96171.69;;;27.24;45.86
65614;BME280;52283;49.292;10.572;2022-07-25T07:56:54;96173.03;;;27.70;45.51
65614;BME280;52283;49.292;10.572;2022-07-25T07:59:21;96170.97;;;28.33;44.26
65614;BME280;52283;49.292;10.572;2022-07-25T08:01:47;96165.47;;;28.25;43.85
65614;BME280;52283;49.292;10.572;2022-07-25T08:04:14;96168.97;;;28.49;43.45
65614;BME280;52283;49.292;10.572;2022-07-25T08:06:41;96167.31;;;28.58;43.58
65614;BME280;52283;49.292;10.572;2022-07-25T08:09:07;96157.09;;;29.35;41.54
65614;BME280;52283;49.292;10.572;2022-07-25T08:11:34;96157.88;;;28.43;42.26
65614;BME280;52283;49.292;10.572;2022-07-25T08:14:02;96159.59;;;28.48;42.57
65614;BME280;52283;49.292;10.572;2022-07-25T08:16:29;96159.31;;;28.56;42.98
65614;BME280;52283;49.292;10.572;2022-07-25T08:18:56;96152.84;;;29.22;42.32
65614;BME280;52283;49.292;10.572;2022-07-25T08:21:22;96141.94;;;29.89;40.81
65614;BME280;52283;49.292;10.572;2022-07-25T08:23:49;96144.97;;;30.21;40.38
65614;BME280;52283;49.292;10.572;2022-07-25T08:26:15;96146.44;;;29.10;42.68
65614;BME280;52283;49.292;10.572;2022-07-25T08:28:42;96147.28;;;29.12;42.31
65614;BME280;52283;49.292;10.572;2022-07-25T08:31:10;96152.53;;;28.63;42.60
65614;BME280;52283;49.292;10.572;2022-07-25T08:33:37;96137.81;;;29.65;41.63
65614;BME280;52283;49.292;10.572;2022-07-25T08:36:04;96139.78;;;30.33;39.76
65614;BME280;52283;49.292;10.572;2022-07-25T08:38:31;96125.91;;;30.29;39.92
65614;BME280;52283;49.292;10.572;2022-07-25T08:40:59;96138.94;;;29.87;40.53
65614;BME280;52283;49.292;10.572;2022-07-25T08:43:28;96125.66;;;30.10;39.44
65614;BME280;52283;49.292;10.572;2022-07-25T08:45:59;96124.44;;;30.89;38.46
65614;BME280;52283;49.292;10.572;2022-07-25T08:48:27;96121.44;;;31.35;37.55
65614;BME280;52283;49.292;10.572;2022-07-25T08:50:54;96125.25;;;30.76;37.86
65614;BME280;52283;49.292;10.572;2022-07-25T08:53:22;96118.66;;;30.74;37.59
65614;BME280;52283;49.292;10.572;2022-07-25T08:55:49;96128.13;;;30.76;37.24
65614;BME280;52283;49.292;10.572;2022-07-25T08:58:17;96123.47;;;31.16;37.01
65614;BME280;52283;49.292;10.572;2022-07-25T09:00:44;96119.22;;;30.25;38.85
65614;BME280;52283;49.292;10.572;2022-07-25T09:03:11;96114.66;;;31.12;37.41
65614;BME280;52283;49.292;10.572;2022-07-25T09:05:40;96109.84;;;30.40;38.05
65614;BME280;52283;49.292;10.572;2022-07-25T09:08:08;96103.44;;;30.42;38.46
65614;BME280;52283;49.292;10.572;2022-07-25T09:10:35;96111.97;;;30.69;37.66
65614;BME280;52283;49.292;10.572;2022-07-25T09:13:04;96096.50;;;31.26;37.13
65614;BME280;52283;49.292;10.572;2022-07-25T09:15:34;96104.56;;;31.45;36.88
65614;BME280;52283;49.292;10.572;2022-07-25T09:18:02;96097.06;;;31.55;37.26
65614;BME280;52283;49.292;10.572;2022-07-25T09:20:40;96086.66;;;32.00;36.12
65614;BME280;52283;49.292;10.572;2022-07-25T09:23:07;96084.59;;;32.56;34.37
65614;BME280;52283;49.292;10.572;2022-07-25T09:25:36;96101.63;;;30.19;38.95
65614;BME280;52283;49.292;10.572;2022-07-25T09:28:13;96084.47;;;31.15;37.57
65614;BME280;52283;49.292;10.572;2022-07-25T09:30:52;96078.50;;;31.61;34.96
65614;BME280;52283;49.292;10.572;2022-07-25T09:33:19;96089.16;;;31.56;35.83
65614;BME280;52283;49.292;10.572;2022-07-25T09:35:47;96089.25;;;31.09;36.37
65614;BME280;52283;49.292;10.572;2022-07-25T09:38:14;96093.78;;;30.51;37.62
65614;BME280;52283;49.292;10.572;2022-07-25T09:40:52;96088.41;;;30.90;36.73
65614;BME280;52283;49.292;10.572;2022-07-25T09:43:19;96086.25;;;31.56;35.86
65614;BME280;52283;49.292;10.572;2022-07-25T09:45:48;96078.16;;;31.86;34.07
65614;BME280;52283;49.292;10.572;2022-07-25T09:48:17;96075.03;;;31.98;34.63
65614;BME280;52283;49.292;10.572;2022-07-25T09:50:43;96077.50;;;32.23;34.33
65614;BME280;52283;49.292;10.572;2022-07-25T09:53:11;96078.91;;;32.40;34.22
65614;BME280;52283;49.292;10.572;2022-07-25T09:55:39;96066.78;;;32.63;32.46
65614;BME280;52283;49.292;10.572;2022-07-25T09:58:05;96066.63;;;31.86;32.92
65614;BME280;52283;49.292;10.572;2022-07-25T10:00:32;96065.09;;;31.85;34.11
65614;BME280;52283;49.292;10.572;2022-07-25T10:03:19;96067.09;;;31.80;34.28
65614;BME280;52283;49.292;10.572;2022-07-25T10:06:01;96054.75;;;31.62;33.36
65614;BME280;52283;49.292;10.572;2022-07-25T10:08:36;96059.78;;;31.62;31.02
65614;BME280;52283;49.292;10.572;2022-07-25T10:11:03;96060.72;;;32.37;31.10
65614;BME280;52283;49.292;10.572;2022-07-25T10:13:33;96052.38;;;32.45;30.23
65614;BME280;52283;49.292;10.572;2022-07-25T10:16:01;96059.75;;;32.68;30.81
65614;BME280;52283;49.292;10.572;2022-07-25T10:18:29;96065.03;;;32.01;32.40
65614;BME280;52283;49.292;10.572;2022-07-25T10:21:10;96055.53;;;31.80;32.75
65614;BME280;52283;49.292;10.572;2022-07-25T10:23:38;96044.09;;;32.56;31.83
65614;BME280;52283;49.292;10.572;2022-07-25T10:26:08;96045.28;;;32.49;31.51
65614;BME280;52283;49.292;10.572;2022-07-25T10:28:46;96038.59;;;32.26;32.40
65614;BME280;52283;49.292;10.572;2022-07-25T10:31:15;96044.22;;;33.37;31.14
65614;BME280;52283;49.292;10.572;2022-07-25T10:33:46;96037.44;;;33.94;31.17
65614;BME280;52283;49.292;10.572;2022-07-25T10:36:13;96034.84;;;33.39;30.79
65614;BME280;52283;49.292;10.572;2022-07-25T10:38:42;96037.50;;;32.73;31.63
65614;BME280;52283;49.292;10.572;2022-07-25T10:41:10;96035.13;;;32.67;31.62
65614;BME280;52283;49.292;10.572;2022-07-25T10:43:38;96034.53;;;32.51;31.73
65614;BME280;52283;49.292;10.572;2022-07-25T10:46:11;96035.97;;;32.70;32.26
65614;BME280;52283;49.292;10.572;2022-07-25T10:48:39;96023.78;;;33.97;30.97
65614;BME280;52283;49.292;10.572;2022-07-25T10:51:08;96023.91;;;34.01;30.06
65614;BME280;52283;49.292;10.572;2022-07-25T10:53:36;96026.47;;;32.87;31.44
65614;BME280;52283;49.292;10.572;2022-07-25T10:56:11;96030.41;;;33.16;31.95
65614;BME280;52283;49.292;10.572;2022-07-25T10:58:47;96019.50;;;33.34;31.33
65614;BME280;52283;49.292;10.572;2022-07-25T11:01:19;96032.53;;;32.56;32.30
65614;BME280;52283;49.292;10.572;2022-07-25T11:03:45;96018.94;;;32.60;32.11
65614;BME280;52283;49.292;10.572;2022-07-25T11:06:13;96019.50;;;32.94;32.27
65614;BME280;52283;49.292;10.572;2022-07-25T11:08:40;96011.28;;;32.11;33.26
65614;BME280;52283;49.292;10.572;2022-07-25T11:11:08;96004.16;;;31.43;34.27
65614;BME280;52283;49.292;10.572;2022-07-25T11:13:36;96008.06;;;31.85;33.52
65614;BME280;52283;49.292;10.572;2022-07-25T11:16:04;96005.44;;;32.47;32.00
65614;BME280;52283;49.292;10.572;2022-07-25T11:18:32;95992.31;;;33.23;30.78
65614;BME280;52283;49.292;10.572;2022-07-25T11:21:00;95996.25;;;32.53;30.35
65614;BME280;52283;49.292;10.572;2022-07-25T11:23:27;95985.38;;;32.51;30.09
65614;BME280;52283;49.292;10.572;2022-07-25T11:26:03;95986.97;;;33.16;29.42
65614;BME280;52283;49.292;10.572;2022-07-25T11:28:41;95973.56;;;33.68;28.61
65614;BME280;52283;49.292;10.572;2022-07-25T11:31:09;95970.41;;;33.60;28.41
65614;BME280;52283;49.292;10.572;2022-07-25T11:33:37;95971.28;;;33.64;27.94
65614;BME280;52283;49.292;10.572;2022-07-25T11:36:04;95959.13;;;33.92;26.99
65614;BME280;52283;49.292;10.572;2022-07-25T11:38:31;95967.50;;;32.96;28.09
65614;BME280;52283;49.292;10.572;2022-07-25T11:40:59;95962.41;;;33.17;27.52
65614;BME280;52283;49.292;10.572;2022-07-25T11:43:25;95946.41;;;33.57;27.07
65614;BME280;52283;49.292;10.572;2022-07-25T11:45:58;95967.13;;;34.15;26.71
65614;BME280;52283;49.292;10.572;2022-07-25T11:48:30;95952.63;;;34.65;26.09
65614;BME280;52283;49.292;10.572;2022-07-25T11:51:07;95961.88;;;34.58;25.53
65614;BME280;52283;49.292;10.572;2022-07-25T11:53:38;95955.19;;;34.53;26.14
65614;BME280;52283;49.292;10.572;2022-07-25T11:56:13;95959.44;;;34.50;26.95
65614;BME280;52283;49.292;10.572;2022-07-25T11:58:40;95946.09;;;34.39;26.97
65614;BME280;52283;49.292;10.572;2022-07-25T12:01:12;95955.75;;;34.73;26.23
65614;BME280;52283;49.292;10.572;2022-07-25T12:03:40;95944.97;;;34.02;24.78
65614;BME280;52283;49.292;10.572;2022-07-25T12:06:08;95941.63;;;33.88;26.31
65614;BME280;52283;49.292;10.572;2022-07-25T12:08:37;95941.81;;;33.72;26.59
65614;BME280;52283;49.292;10.572;2022-07-25T12:11:15;95939.66;;;33.73;26.12
65614;BME280;52283;49.292;10.572;2022-07-25T12:13:42;95938.88;;;34.16;24.37
65614;BME280;52283;49.292;10.572;2022-07-25T12:16:08;95942.63;;;34.70;23.65
65614;BME280;52283;49.292;10.572;2022-07-25T12:18:36;95950.06;;;34.04;24.17
65614;BME280;52283;49.292;10.572;2022-07-25T12:21:03;95942.84;;;34.05;23.58
65614;BME280;52283;49.292;10.572;2022-07-25T12:23:29;95945.28;;;34.36;22.51
65614;BME280;52283;49.292;10.572;2022-07-25T12:25:56;95941.69;;;34.14;22.41
65614;BME280;52283;49.292;10.572;2022-07-25T12:28:23;95948.84;;;34.11;23.09
65614;BME280;52283;49.292;10.572;2022-07-25T12:30:49;95940.88;;;34.35;23.85
65614;BME280;52283;49.292;10.572;2022-07-25T12:33:16;95944.34;;;34.06;24.30
65614;BME280;52283;49.292;10.572;2022-07-25T12:35:43;95939.59;;;34.40;24.49
65614;BME280;52283;49.292;10.572;2022-07-25T12:38:10;95946.25;;;34.21;24.41
65614;BME280;52283;49.292;10.572;2022-07-25T12:40:37;95945.66;;;33.79;24.64
65614;BME280;52283;49.292;10.572;2022-07-25T12:43:03;95934.69;;;33.75;24.95
65614;BME280;52283;49.292;10.572;2022-07-25T12:45:30;95942.78;;;34.27;24.93
65614;BME280;52283;49.292;10.572;2022-07-25T12:47:56;95938.94;;;34.68;23.99
65614;BME280;52283;49.292;10.572;2022-07-25T12:50:23;95937.72;;;34.51;23.97
65614;BME280;52283;49.292;10.572;2022-07-25T12:52:51;95933.81;;;34.40;24.39